createdAt,value
2019-04-14T00:01:47.686Z,67.87
2019-04-14T00:04:22.491Z,67.90
2019-04-14T00:06:52.895Z,68.00
2019-04-14T00:09:23.019Z,67.81
2019-04-14T00:11:53.196Z,67.80
2019-04-14T00:14:23.322Z,68.09
2019-04-14T00:16:53.445Z,68.15
2019-04-14T00:19:23.887Z,68.42
2019-04-14T00:21:54.410Z,68.00
2019-04-14T00:24:24.934Z,67.88
2019-04-14T00:26:55.280Z,68.14
2019-04-14T00:29:26.321Z,68.15
2019-04-14T00:31:56.990Z,68.29
2019-04-14T00:34:46.385Z,68.38
2019-04-14T00:37:34.431Z,68.66
2019-04-14T00:40:10.904Z,68.39
2019-04-14T00:43:02.974Z,68.16
2019-04-14T00:45:48.927Z,68.25
2019-04-14T00:48:20.858Z,68.45
2019-04-14T00:50:51.671Z,68.42
2019-04-14T00:53:22.861Z,68.17
2019-04-14T00:55:53.366Z,68.46
2019-04-14T00:58:23.652Z,68.05
2019-04-14T01:00:53.901Z,67.99
2019-04-14T01:03:24.438Z,67.63
2019-04-14T01:05:54.797Z,67.59
2019-04-14T01:08:24.990Z,67.41
2019-04-14T01:10:56.136Z,67.89
2019-04-14T01:13:26.787Z,67.37
2019-04-14T01:16:03.960Z,67.33
2019-04-14T01:18:29.850Z,67.42
2019-04-14T01:21:00.318Z,67.34
2019-04-14T01:23:30.560Z,67.21
2019-04-14T01:26:00.755Z,67.24
2019-04-14T01:28:30.864Z,67.16
2019-04-14T01:31:03.383Z,67.02
2019-04-14T01:33:33.755Z,67.22
2019-04-14T01:36:04.032Z,67.12
2019-04-14T01:38:34.377Z,67.17
2019-04-14T01:41:04.873Z,67.03
2019-04-14T01:43:36.324Z,67.09
2019-04-14T01:46:14.776Z,67.00
2019-04-14T01:48:38.911Z,66.97
2019-04-14T01:51:37.404Z,67.30
2019-04-14T01:54:41.379Z,67.45
2019-04-14T01:57:24.273Z,67.30
2019-04-14T01:59:54.665Z,67.49
2019-04-14T02:02:27.001Z,67.74
2019-04-14T02:04:57.556Z,67.58
2019-04-14T02:07:27.742Z,67.59
2019-04-14T02:09:57.895Z,67.63
2019-04-14T02:12:28.009Z,67.46
2019-04-14T02:14:58.312Z,67.26
2019-04-14T02:17:28.541Z,67.49
2019-04-14T02:19:58.983Z,67.88
2019-04-14T02:22:29.159Z,67.71
2019-04-14T02:24:59.301Z,67.57
2019-04-14T02:27:29.745Z,67.70
2019-04-14T02:30:00.338Z,67.86
2019-04-14T02:32:57.300Z,67.99
2019-04-14T02:35:32.084Z,68.40
2019-04-14T02:38:02.071Z,68.21
2019-04-14T02:40:39.116Z,68.23
2019-04-14T02:43:04.246Z,68.28
2019-04-14T02:46:39.834Z,68.40
2019-04-14T02:48:17.602Z,68.67
2019-04-14T02:50:36.995Z,68.25
2019-04-14T02:53:20.885Z,68.16
2019-04-14T02:55:48.956Z,68.15
2019-04-14T02:58:24.611Z,68.47
2019-04-14T03:00:47.947Z,68.07
2019-04-14T03:03:23.812Z,68.15
2019-04-14T03:05:53.342Z,68.07
2019-04-14T03:08:26.335Z,67.88
2019-04-14T03:10:55.977Z,67.79
2019-04-14T03:13:28.785Z,67.64
2019-04-14T03:16:02.369Z,67.41
2019-04-14T03:18:52.657Z,67.21
2019-04-14T03:21:34.432Z,67.62
2019-04-14T03:24:32.789Z,67.24
2019-04-14T03:27:13.533Z,67.31
2019-04-14T03:29:52.148Z,67.22
2019-04-14T03:32:39.610Z,67.24
2019-04-14T03:39:51.861Z,67.11
2019-04-14T03:42:35.783Z,67.10
2019-04-14T03:44:58.718Z,67.00
2019-04-14T03:47:34.730Z,67.30
2019-04-14T03:50:05.980Z,66.85
2019-04-14T03:52:43.583Z,66.93
2019-04-14T03:54:57.037Z,66.88
2019-04-14T03:57:13.303Z,67.06
2019-04-14T03:59:43.539Z,67.31
2019-04-14T04:02:13.984Z,67.19
2019-04-14T04:04:44.473Z,67.29
2019-04-14T04:07:14.997Z,67.30
2019-04-14T04:10:13.603Z,67.44
2019-04-14T04:12:46.525Z,67.12
2019-04-14T04:15:17.061Z,67.39
2019-04-14T04:17:58.790Z,67.33
2019-04-14T04:20:47.666Z,67.70
2019-04-14T04:23:38.097Z,67.53
2019-04-14T04:26:40.652Z,67.52
2019-04-14T04:29:26.581Z,67.52
2019-04-14T04:32:20.743Z,67.42
2019-04-14T04:35:10.771Z,67.53
2019-04-14T04:38:03.084Z,67.58
2019-04-14T04:40:33.356Z,67.73
2019-04-14T04:43:03.813Z,67.77
2019-04-14T04:45:34.177Z,67.93
2019-04-14T04:48:04.583Z,67.93
2019-04-14T04:50:34.967Z,68.11
2019-04-14T04:53:05.129Z,67.87
2019-04-14T04:55:35.216Z,68.12
2019-04-14T04:58:05.712Z,68.45
2019-04-14T05:00:35.991Z,67.97
2019-04-14T05:03:07.915Z,67.99
2019-04-14T05:06:09.096Z,68.21
2019-04-14T05:08:43.976Z,67.93
2019-04-14T05:11:23.137Z,67.90
2019-04-14T05:13:57.587Z,67.99
2019-04-14T05:16:28.232Z,68.00
2019-04-14T05:19:11.429Z,68.35
2019-04-14T05:21:32.146Z,68.06
2019-04-14T05:24:02.802Z,67.92
2019-04-14T05:26:33.142Z,68.49
2019-04-14T05:29:03.581Z,68.49
2019-04-14T05:31:33.890Z,67.90
2019-04-14T05:34:04.387Z,68.02
2019-04-14T05:36:34.651Z,67.97
2019-04-14T05:39:06.746Z,67.65
2019-04-14T05:41:37.579Z,67.73
2019-04-14T05:44:07.975Z,67.74
2019-04-14T05:46:38.202Z,67.67
2019-04-14T05:49:08.593Z,67.87
2019-04-14T05:51:39.387Z,67.65
2019-04-14T05:54:09.997Z,66.98
2019-04-14T05:56:40.742Z,66.91
2019-04-14T05:59:11.381Z,67.14
2019-04-14T06:01:42.078Z,67.37
2019-04-14T06:04:13.502Z,66.87
2019-04-14T06:06:44.585Z,67.10
2019-04-14T06:09:14.801Z,66.86
2019-04-14T06:11:47.639Z,67.81
2019-04-14T06:14:17.860Z,70.23
2019-04-14T06:16:47.976Z,69.29
2019-04-14T06:19:18.063Z,68.26
2019-04-14T06:21:48.153Z,68.11
2019-04-14T06:24:18.358Z,68.03
2019-04-14T06:26:48.456Z,67.68
2019-04-14T06:29:18.852Z,67.45
2019-04-14T06:32:04.795Z,67.29
2019-04-14T06:34:52.703Z,67.06
2019-04-14T06:37:37.266Z,67.39
2019-04-14T06:40:07.537Z,66.80
2019-04-14T06:42:37.613Z,66.48
2019-04-14T06:45:07.742Z,66.02
2019-04-14T06:47:40.662Z,66.58
2019-04-14T06:50:10.697Z,66.82
2019-04-14T06:52:40.848Z,66.28
2019-04-14T06:55:10.910Z,67.21
2019-04-14T06:57:40.983Z,68.25
2019-04-14T07:00:11.217Z,66.92
2019-04-14T07:02:41.377Z,67.38
2019-04-14T07:05:11.544Z,66.50
2019-04-14T07:07:42.150Z,67.70
2019-04-14T07:10:12.326Z,67.26
2019-04-14T07:12:43.168Z,66.56
2019-04-14T07:15:13.698Z,67.21
2019-04-14T07:17:46.023Z,66.41
2019-04-14T07:20:16.070Z,66.88
2019-04-14T07:22:46.259Z,67.65
2019-04-14T07:25:16.584Z,67.27
2019-04-14T07:27:46.683Z,67.34
2019-04-14T07:30:47.485Z,66.78
2019-04-14T07:33:45.866Z,65.33
2019-04-14T07:36:37.593Z,66.59
2019-04-14T07:39:42.048Z,64.97
2019-04-14T07:42:33.531Z,65.47
2019-04-14T07:45:15.121Z,66.27
2019-04-14T07:48:10.022Z,66.10
2019-04-14T07:51:05.286Z,65.65
2019-04-14T07:53:50.169Z,63.76
2019-04-14T07:56:35.418Z,65.28
2019-04-14T07:59:27.359Z,65.53
2019-04-14T08:02:06.224Z,65.44
2019-04-14T08:04:44.154Z,65.56
2019-04-14T08:07:14.301Z,64.79
2019-04-14T08:09:44.519Z,64.40
2019-04-14T08:12:14.645Z,63.22
2019-04-14T08:14:44.832Z,64.22
2019-04-14T08:17:15.454Z,63.03
2019-04-14T08:19:47.476Z,62.47
2019-04-14T08:22:17.695Z,62.43
2019-04-14T08:24:47.829Z,61.57
2019-04-14T08:27:18.049Z,62.10
2019-04-14T08:29:48.253Z,61.31
2019-04-14T08:32:18.403Z,61.82
2019-04-14T08:34:48.712Z,60.92
2019-04-14T08:37:20.426Z,60.92
2019-04-14T08:39:52.583Z,60.00
2019-04-14T08:42:40.121Z,60.19
2019-04-14T08:45:38.169Z,59.26
2019-04-14T08:48:30.097Z,58.52
2019-04-14T08:51:22.931Z,58.38
2019-04-14T08:54:11.930Z,58.94
2019-04-14T08:56:55.726Z,59.16
2019-04-14T08:59:59.771Z,59.39
2019-04-14T09:02:50.308Z,58.96
2019-04-14T09:05:41.796Z,57.01
2019-04-14T09:08:33.476Z,56.43
2019-04-14T09:11:06.642Z,58.95
2019-04-14T09:13:37.841Z,57.22
2019-04-14T09:16:09.593Z,57.28
2019-04-14T09:18:42.643Z,57.93
2019-04-14T09:21:13.022Z,57.19
2019-04-14T09:23:45.514Z,56.81
2019-04-14T09:26:15.672Z,55.65
2019-04-14T09:28:48.619Z,55.41
2019-04-14T09:31:18.764Z,55.66
2019-04-14T09:33:48.934Z,55.76
2019-04-14T09:36:19.204Z,56.38
2019-04-14T09:38:49.506Z,53.33
2019-04-14T09:41:24.456Z,54.37
2019-04-14T09:43:54.866Z,54.55
2019-04-14T09:46:26.813Z,54.12
2019-04-14T09:49:03.438Z,53.02
2019-04-14T09:51:33.847Z,52.01
2019-04-14T09:54:06.947Z,51.75
2019-04-14T09:56:44.140Z,51.77
2019-04-14T09:59:14.383Z,51.44
2019-04-14T10:01:46.963Z,49.99
2019-04-14T10:04:18.526Z,51.26
2019-04-14T10:06:48.835Z,48.92
2019-04-14T10:09:21.221Z,50.70
2019-04-14T10:11:57.626Z,49.78
2019-04-14T10:14:30.063Z,50.24
2019-04-14T10:17:02.018Z,49.15
2019-04-14T10:19:34.535Z,49.30
2019-04-14T10:22:10.313Z,49.24
2019-04-14T10:24:40.624Z,49.05
2019-04-14T10:27:10.869Z,47.68
2019-04-14T10:29:41.057Z,48.02
2019-04-14T10:32:11.189Z,46.99
2019-04-14T10:34:44.614Z,48.47
2019-04-14T10:37:14.728Z,47.22
2019-04-14T10:39:48.374Z,48.09
2019-04-14T10:42:25.609Z,49.00
2019-04-14T10:44:55.807Z,48.57
2019-04-14T10:47:28.295Z,46.96
2019-04-14T10:49:58.494Z,47.88
2019-04-14T10:52:28.846Z,48.20
2019-04-14T10:54:59.063Z,48.63
2019-04-14T10:57:31.501Z,46.88
2019-04-14T11:00:01.707Z,47.37
2019-04-14T11:02:33.926Z,48.53
2019-04-14T11:05:06.571Z,47.40
2019-04-14T11:07:36.970Z,46.77
2019-04-14T11:10:10.696Z,48.93
2019-04-14T11:12:43.974Z,48.16
2019-04-14T11:15:15.612Z,46.26
2019-04-14T11:17:45.974Z,48.42
2019-04-14T11:20:18.855Z,47.61
2019-04-14T11:23:02.473Z,46.78
2019-04-14T11:25:22.355Z,46.43
2019-04-14T11:27:52.639Z,47.61
2019-04-14T11:30:23.475Z,46.55
2019-04-14T11:33:07.898Z,45.06
2019-04-14T11:36:11.996Z,45.50
2019-04-14T11:38:52.837Z,46.39
2019-04-14T11:41:23.858Z,44.59
2019-04-14T11:43:54.761Z,44.21
2019-04-14T11:46:25.115Z,44.18
2019-04-14T11:48:55.514Z,45.88
2019-04-14T11:51:27.477Z,45.37
2019-04-14T11:54:00.513Z,44.24
2019-04-14T11:56:32.186Z,44.27
2019-04-14T11:59:02.259Z,43.33
2019-04-14T12:02:09.075Z,45.82
2019-04-14T12:04:53.831Z,44.82
2019-04-14T12:07:28.148Z,45.80
2019-04-14T12:10:12.939Z,44.66
2019-04-14T12:12:44.658Z,45.01
2019-04-14T12:15:16.979Z,45.15
2019-04-14T12:17:47.123Z,43.39
2019-04-14T12:20:17.290Z,42.63
2019-04-14T12:22:50.649Z,43.31
2019-04-14T12:25:25.338Z,45.26
2019-04-14T12:27:57.614Z,45.48
2019-04-14T12:30:29.120Z,45.75
2019-04-14T12:32:59.361Z,45.78
2019-04-14T12:35:29.573Z,45.11
2019-04-14T12:37:59.785Z,44.74
2019-04-14T12:40:29.924Z,45.04
2019-04-14T12:43:08.812Z,44.81
2019-04-14T12:46:06.701Z,44.59
2019-04-14T12:48:55.801Z,45.77
2019-04-14T12:51:29.941Z,43.94
2019-04-14T12:54:02.908Z,44.62
2019-04-14T12:56:32.989Z,45.27
2019-04-14T12:59:24.886Z,44.72
2019-04-14T13:02:20.341Z,42.54
2019-04-14T13:04:50.726Z,45.23
2019-04-14T13:07:23.997Z,43.92
2019-04-14T13:09:54.527Z,45.33
2019-04-14T13:12:28.542Z,45.86
2019-04-14T13:15:02.794Z,45.59
2019-04-14T13:17:34.919Z,45.56
2019-04-14T13:20:05.514Z,46.94
2019-04-14T13:22:35.839Z,45.06
2019-04-14T13:25:06.367Z,44.37
2019-04-14T13:27:40.495Z,44.89
2019-04-14T13:30:22.955Z,45.12
2019-04-14T13:32:57.551Z,46.31
2019-04-14T13:35:28.868Z,46.31
2019-04-14T13:38:02.033Z,45.80
2019-04-14T13:40:35.371Z,45.20
2019-04-14T13:43:07.374Z,46.14
2019-04-14T13:45:38.462Z,47.61
2019-04-14T13:48:08.641Z,45.55
2019-04-14T13:50:39.126Z,44.60
2019-04-14T13:53:09.477Z,45.25
2019-04-14T13:55:41.367Z,42.73
2019-04-14T13:58:14.033Z,44.30
2019-04-14T14:00:44.253Z,43.51
2019-04-14T14:03:14.558Z,42.29
2019-04-14T14:05:48.696Z,43.75
2019-04-14T14:08:19.872Z,44.07
2019-04-14T14:10:54.944Z,45.42
2019-04-14T14:13:35.979Z,45.47
2019-04-14T14:16:37.018Z,45.86
2019-04-14T14:19:27.799Z,45.72
2019-04-14T14:22:16.725Z,45.11
2019-04-14T14:25:10.884Z,46.21
2019-04-14T14:27:41.215Z,46.36
2019-04-14T14:30:18.807Z,43.96
2019-04-14T14:32:53.116Z,44.31
2019-04-14T14:35:24.489Z,44.56
2019-04-14T14:37:57.703Z,44.35
2019-04-14T14:40:29.599Z,44.19
2019-04-14T14:43:01.721Z,41.52
2019-04-14T14:46:00.569Z,44.00
2019-04-14T14:48:51.399Z,43.58
2019-04-14T14:51:39.183Z,44.71
2019-04-14T14:54:09.610Z,42.84
2019-04-14T14:56:43.095Z,45.05
2019-04-14T14:59:19.567Z,45.63
2019-04-14T15:01:48.490Z,46.17
2019-04-14T15:04:23.429Z,44.94
2019-04-14T15:06:53.674Z,46.84
2019-04-14T15:09:24.040Z,46.56
2019-04-14T15:11:57.183Z,46.14
2019-04-14T15:14:33.647Z,46.25
2019-04-14T15:17:08.357Z,46.12
2019-04-14T15:19:38.464Z,46.42
2019-04-14T15:22:12.145Z,46.26
2019-04-14T15:24:42.298Z,46.26
2019-04-14T15:27:12.408Z,47.28
2019-04-14T15:29:43.955Z,47.31
2019-04-14T15:32:17.241Z,47.26
2019-04-14T15:34:50.299Z,46.64
2019-04-14T15:37:20.509Z,47.21
2019-04-14T15:39:50.879Z,47.76
2019-04-14T15:42:21.233Z,48.13
2019-04-14T15:44:52.511Z,48.06
2019-04-14T15:47:23.047Z,47.78
2019-04-14T15:49:53.260Z,48.36
2019-04-14T15:52:25.103Z,48.49
2019-04-14T15:54:56.292Z,49.31
2019-04-14T15:57:51.605Z,48.85
2019-04-14T16:00:41.040Z,48.19
2019-04-14T16:03:36.002Z,48.48
2019-04-14T16:06:25.350Z,49.42
2019-04-14T16:09:23.579Z,49.85
2019-04-14T16:12:18.198Z,49.99
2019-04-14T16:15:04.733Z,50.24
2019-04-14T16:17:56.978Z,50.15
2019-04-14T16:20:30.705Z,50.94
2019-04-14T16:23:03.140Z,50.76
2019-04-14T16:25:59.614Z,51.38
2019-04-14T16:29:02.540Z,51.39
2019-04-14T16:32:02.962Z,51.21
2019-04-14T16:34:42.260Z,52.04
2019-04-14T16:37:13.261Z,51.96
2019-04-14T16:39:45.941Z,51.66
2019-04-14T16:42:18.917Z,52.83
2019-04-14T16:44:48.981Z,54.11
2019-04-14T16:47:20.961Z,54.50
2019-04-14T16:49:53.925Z,54.06
2019-04-14T16:52:37.964Z,54.42
2019-04-14T16:55:18.452Z,54.63
2019-04-14T16:58:16.031Z,54.85
2019-04-14T17:00:50.105Z,54.75
2019-04-14T17:03:20.453Z,55.28
2019-04-14T17:05:50.705Z,55.43
2019-04-14T17:08:21.067Z,55.17
2019-04-14T17:10:51.401Z,56.00
2019-04-14T17:13:22.971Z,55.35
2019-04-14T17:16:28.889Z,55.43
2019-04-14T17:19:07.041Z,55.40
2019-04-14T17:21:44.918Z,55.54
2019-04-14T17:24:36.818Z,55.27
2019-04-14T17:27:30.333Z,56.05
2019-04-14T17:30:12.652Z,56.29
2019-04-14T17:33:05.035Z,56.51
2019-04-14T17:35:57.496Z,57.54
2019-04-14T17:38:33.809Z,57.71
2019-04-14T17:41:28.821Z,58.32
2019-04-14T17:44:05.959Z,58.25
2019-04-14T17:46:53.642Z,58.83
2019-04-14T17:49:45.414Z,59.11
2019-04-14T17:52:36.945Z,59.03
2019-04-14T17:55:14.535Z,59.51
2019-04-14T17:57:55.521Z,60.13
2019-04-14T18:00:59.919Z,60.12
2019-04-14T18:03:55.283Z,60.08
2019-04-14T18:06:43.069Z,60.66
2019-04-14T18:09:32.207Z,60.92
2019-04-14T18:12:10.851Z,60.95
2019-04-14T18:15:11.987Z,61.15
2019-04-14T18:18:12.924Z,61.17
2019-04-14T18:20:48.692Z,61.45
2019-04-14T18:23:18.917Z,61.98
2019-04-14T18:25:49.212Z,62.42
2019-04-14T18:28:38.398Z,62.05
2019-04-14T18:31:33.759Z,62.17
2019-04-14T18:34:34.973Z,62.62
2019-04-14T18:37:14.195Z,62.75
2019-04-14T18:40:07.020Z,62.75
2019-04-14T18:43:09.937Z,63.80
2019-04-14T18:45:46.798Z,63.99
2019-04-14T18:48:42.093Z,64.58
2019-04-14T18:51:40.563Z,64.63
2019-04-14T18:54:33.912Z,65.41
2019-04-14T18:57:12.012Z,65.62
2019-04-14T18:59:49.583Z,65.72
2019-04-14T19:02:21.327Z,66.15
2019-04-14T19:04:51.817Z,66.34
2019-04-14T19:07:22.357Z,66.97
2019-04-14T19:09:54.372Z,67.12
2019-04-14T19:12:44.351Z,67.40
2019-04-14T19:15:29.565Z,67.61
2019-04-14T19:18:21.052Z,67.71
2019-04-14T19:21:00.127Z,68.20
2019-04-14T19:23:30.512Z,68.43
2019-04-14T19:26:01.006Z,68.34
2019-04-14T19:28:34.645Z,68.34
2019-04-14T19:31:05.366Z,68.77
2019-04-14T19:33:36.413Z,69.08
2019-04-14T19:36:06.960Z,69.32
2019-04-14T19:38:38.849Z,69.16
2019-04-14T19:41:11.796Z,69.54
2019-04-14T19:43:42.755Z,69.63
2019-04-14T19:46:13.174Z,69.65
2019-04-14T19:48:43.634Z,70.24
2019-04-14T19:51:14.439Z,70.20
2019-04-14T19:53:45.409Z,70.45
2019-04-14T19:56:19.005Z,70.67
2019-04-14T19:58:51.823Z,70.51
2019-04-14T20:01:22.724Z,71.28
2019-04-14T20:03:53.822Z,71.02
2019-04-14T20:06:24.140Z,71.15
2019-04-14T20:08:54.696Z,71.17
2019-04-14T20:11:25.099Z,71.61
2019-04-14T20:13:56.657Z,71.91
2019-04-14T20:16:36.709Z,71.95
2019-04-14T20:19:25.784Z,72.20
2019-04-14T20:22:13.510Z,71.89
2019-04-14T20:24:51.153Z,72.27
2019-04-14T20:27:40.391Z,72.45
2019-04-14T20:30:15.249Z,72.77
2019-04-14T20:32:45.560Z,72.59
2019-04-14T20:35:15.841Z,72.99
2019-04-14T20:37:46.073Z,73.37
2019-04-14T20:40:16.489Z,73.67
2019-04-14T20:42:46.609Z,74.61
2019-04-14T20:45:17.220Z,75.18
2019-04-14T20:47:47.445Z,75.02
2019-04-14T20:50:17.712Z,74.94
2019-04-14T20:52:51.053Z,75.33
2019-04-14T20:55:23.211Z,75.80
2019-04-14T20:57:53.497Z,75.63
2019-04-14T21:00:26.796Z,75.47
2019-04-14T21:03:14.741Z,76.21
2019-04-14T21:06:12.996Z,76.87
2019-04-14T21:09:07.191Z,78.66
2019-04-14T21:11:42.570Z,79.52
2019-04-14T21:14:22.664Z,80.78
2019-04-14T21:17:07.909Z,81.57
2019-04-14T21:20:16.982Z,82.85
2019-04-14T21:23:14.496Z,84.17
2019-04-14T21:26:03.967Z,85.24
2019-04-14T21:28:58.223Z,86.16
2019-04-14T21:31:41.962Z,86.92
2019-04-14T21:34:20.829Z,88.29
2019-04-14T21:36:59.702Z,87.75
2019-04-14T21:39:40.857Z,88.63
2019-04-14T21:42:10.961Z,89.71
2019-04-14T21:44:41.173Z,89.91
2019-04-14T21:47:13.124Z,90.14
2019-04-14T21:49:43.272Z,90.95
2019-04-14T21:52:35.113Z,91.69
2019-04-14T21:55:05.970Z,91.57
2019-04-14T21:58:10.441Z,92.20
2019-04-14T22:01:40.279Z,93.31
2019-04-14T22:04:27.819Z,93.49
2019-04-14T22:07:01.032Z,94.05
2019-04-14T22:09:34.707Z,94.88
2019-04-14T22:12:06.241Z,95.67
2019-04-14T22:14:37.927Z,95.77
2019-04-14T22:17:11.258Z,96.19
2019-04-14T22:19:42.511Z,96.37
2019-04-14T22:22:14.909Z,96.69
2019-04-14T22:24:45.078Z,97.00
2019-04-14T22:27:15.292Z,96.86
2019-04-14T22:29:45.472Z,97.54
2019-04-14T22:32:15.657Z,98.26
2019-04-14T22:34:49.151Z,98.13
2019-04-14T22:37:19.334Z,98.81
2019-04-14T22:39:51.762Z,99.07
2019-04-14T22:42:21.890Z,99.57
2019-04-14T22:44:51.951Z,100.00
2019-04-14T22:47:24.686Z,99.87
2019-04-14T22:49:54.786Z,100.00
2019-04-14T22:52:25.023Z,100.00
2019-04-14T22:54:55.168Z,100.00
2019-04-14T22:57:26.589Z,100.00
2019-04-14T22:59:58.570Z,100.00
2019-04-14T23:02:53.307Z,100.00
2019-04-14T23:05:33.902Z,100.00
2019-04-14T23:08:35.143Z,100.00
2019-04-14T23:11:33.228Z,100.00
2019-04-14T23:14:21.052Z,100.00
2019-04-14T23:17:10.093Z,100.00
2019-04-14T23:19:45.125Z,100.00
2019-04-14T23:22:23.857Z,100.00
2019-04-14T23:24:56.312Z,100.00
2019-04-14T23:27:26.528Z,100.00
2019-04-14T23:29:59.453Z,100.00
2019-04-14T23:32:29.575Z,100.00
2019-04-14T23:34:59.730Z,100.00
2019-04-14T23:37:32.826Z,100.00
2019-04-14T23:40:03.234Z,100.00
2019-04-14T23:42:33.454Z,100.00
2019-04-14T23:45:03.703Z,100.00
2019-04-14T23:47:34.379Z,100.00
2019-04-14T23:50:04.814Z,100.00
2019-04-14T23:52:35.032Z,100.00
2019-04-14T23:55:07.021Z,100.00
2019-04-14T23:57:37.292Z,100.00
